• Join FlightAware (Why Join?)
  • Login
  • US Flag 
02:41AM EDT


 

Airport Tracker/Info


-or-


 

Live Flight TrackerFlight Track Log ✈ SWA3247 ✈ 23-Jun-2013 ✈ KLAS - KALB

Flight Track Log - Related Links

Times and Time Zones

All times are in EDT time to prevent confusion due to time zone crossing. See the SWA3247 flight status page for this flight to view local times or setup timezone preferences in your user account.

Time Position Orientation Groundspeed Altitude Reporting Facility
EDT Latitude Longitude Course Direction KTS MPH feet Rate Location/Type
09:00PM 36.0772 -115.1731 271° West 176 203 3,200  Level Los Angeles Center
09:01PM 36.0781 -115.2575 271° West 195 224 5,700 1,860 Climbing Los Angeles Center
09:02PM 36.1403 -115.3067 327° Northwest 269 310 7,600 2,340 Climbing Los Angeles Center
09:03PM 36.1881 -115.2056 60° Northeast 305 351 10,600 2,400 Climbing Los Angeles Center
09:04PM 36.1972 -115.0867 85° East 341 392 12,600 2,040 Climbing Los Angeles Center
09:05PM 36.1981 -114.9619 89° East 359 413 14,900 2,220 Climbing Los Angeles Center
09:06PM 36.1994 -114.8281 89° East 381 438 17,300 1,980 Climbing Los Angeles Center
09:07PM 36.1992 -114.6889 90° East 396 456 19,000 960 Climbing Los Angeles Center
09:08PM 36.1967 -114.5475 91° East 408 470 19,300 1,080 Climbing Los Angeles Center
09:09PM 36.1956 -114.4328 91° East 414 476 21,300 2,280 Climbing Los Angeles Center
09:10PM 36.1969 -114.2303 89° East 421 484 24,100 2,220 Climbing Los Angeles Center
09:11PM 36.2492 -114.0872 66° East 449 517 26,000 1,680 Climbing Los Angeles Center
09:12PM 36.2989 -113.9439 67° East 452 520 27,600 1,260 Climbing Los Angeles Center
09:13PM 36.3503 -113.7947 67° East 464 534 28,600 1,080 Climbing Los Angeles Center
09:14PM 36.4047 -113.6403 66° East 480 552 29,900 1,200 Climbing Los Angeles Center
09:15PM 36.4764 -113.4947 58° Northeast 494 568 31,200 1,500 Climbing Los Angeles Center
09:16PM 36.5583 -113.3550 54° Northeast 492 566 33,000 1,560 Climbing Los Angeles Center
09:17PM 36.6528 -113.1908 54° Northeast 488 562 34,500 960 Climbing Los Angeles Center
09:19PM 36.7208 -113.0458 60° Northeast 488 562 35,000 240 Climbing Los Angeles Center
09:20PM 36.7689 -112.8858 69° East 494 568 35,000  Level Los Angeles Center
09:21PM 36.8208 -112.7297 67° East 492 566 35,000  Level Los Angeles Center
09:22PM 36.8708 -112.5711 68° East 494 568 35,000  Level Los Angeles Center
09:23PM 36.9306 -112.3831 68° East 491 565 35,000  Level Los Angeles Center
09:24PM 36.9797 -112.2278 68° East 488 562 35,000  Level Los Angeles Center
09:25PM 37.0189 -112.1028 69° East 486 559 35,000  Level Los Angeles Center
09:26PM 37.0778 -111.9150 68° East 486 559 35,000  Level Los Angeles Center
09:27PM 37.1256 -111.7558 69° East 489 563 35,000  Level Los Angeles Center
09:28PM 37.1656 -111.6283 68° East 489 563 35,000 180 Level Denver Center
09:29PM 37.2119 -111.4706 70° East 488 562 35,400 780 Climbing Denver Center
09:30PM 37.2706 -111.2778 69° East 495 570 36,600 780 Climbing Denver Center
09:31PM 37.3097 -111.1486 69° East 496 571 37,000 180 Climbing Denver Center
09:32PM 37.3672 -110.9553 69° East 494 568 37,000  Level Denver Center
09:33PM 37.4153 -110.7950 69° East 492 566 37,000  Level Denver Center
09:34PM 37.4617 -110.6347 70° East 489 563 37,000  Level Denver Center
09:35PM 37.5117 -110.4628 70° East 487 560 37,000  Level Denver Center
09:36PM 37.5581 -110.3092 69° East 489 563 37,000  Level Denver Center
09:37PM 37.6089 -110.1297 70° East 487 560 37,000  Level Denver Center
09:38PM 37.6528 -109.9764 70° East 485 558 37,000  Level Denver Center
09:39PM 37.7044 -109.7986 70° East 484 557 37,000  Level Denver Center
09:40PM 37.7478 -109.6456 70° East 483 556 37,000  Level Denver Center
09:41PM 37.7989 -109.4678 70° East 483 556 37,000  Level Denver Center
09:42PM 37.8417 -109.3133 71° East 485 558 37,000  Level Denver Center
09:43PM 37.8917 -109.1328 71° East 486 559 37,000  Level Denver Center
09:44PM 37.9350 -108.9781 70° East 487 560 37,000  Level Denver Center
09:45PM 37.9772 -108.8222 71° East 487 560 37,000  Level Denver Center
09:46PM 38.0272 -108.6439 70° East 482 555 37,000  Level Denver Center
09:47PM 38.0678 -108.4914 71° East 485 558 37,000  Level Denver Center
09:48PM 38.1158 -108.3144 71° East 479 551 37,000  Level Denver Center
09:49PM 38.1569 -108.1622 71° East 478 550 37,000  Level Denver Center
09:50PM 38.2050 -107.9853 71° East 475 547 37,000  Level Denver Center
09:51PM 38.2453 -107.8333 71° East 477 549 37,000  Level Denver Center
09:52PM 38.2917 -107.6550 72° East 478 550 37,000  Level Denver Center
09:53PM 38.3325 -107.5000 71° East 480 552 37,000  Level Denver Center
09:54PM 38.3794 -107.3186 72° East 484 557 37,000  Level Denver Center
09:55PM 38.4214 -107.1567 72° East 484 557 37,000  Level Denver Center
09:56PM 38.4622 -106.9939 72° East 483 556 37,000  Level Denver Center
09:57PM 38.5061 -106.8347 71° East 480 552 37,000  Level Denver Center
09:58PM 38.5828 -106.6958 55° Northeast 483 556 37,000  Level Denver Center
09:59PM 38.6486 -106.5494 60° Northeast 480 552 37,000  Level Denver Center
10:01PM 38.7189 -106.3650 64° Northeast 481 554 37,000  Level Denver Center
10:02PM 38.7769 -106.2117 64° Northeast 481 554 37,000  Level Denver Center
10:03PM 38.8319 -106.0689 64° Northeast 479 551 37,000  Level Denver Center
10:04PM 38.8686 -105.9039 74° East 483 556 37,000  Level Denver Center
10:05PM 38.9086 -105.7072 75° East 477 549 37,000  Level Denver Center
10:06PM 38.9428 -105.5458 75° East 473 544 37,000  Level Denver Center
10:07PM 38.9750 -105.3822 76° East 473 544 37,000  Level Denver Center
10:08PM 39.0019 -105.2183 78° East 473 544 37,000  Level Denver Center
10:09PM 39.0331 -105.0564 76° East 470 541 37,000  Level Denver Center
10:10PM 39.0683 -104.8997 74° East 463 533 37,000  Level Denver Center
10:11PM 39.1106 -104.7114 74° East 461 531 37,000  Level Denver Center
10:12PM 39.1483 -104.5556 73° East 461 531 37,000  Level Denver Center
10:13PM 39.1883 -104.3994 72° East 463 533 37,000  Level Denver Center
10:14PM 39.2244 -104.2472 73° East 453 521 37,000  Level Denver Center
10:15PM 39.2592 -104.0967 73° East 443 510 37,000  Level Denver Center
10:16PM 39.2900 -103.9078 78° East 452 520 37,000  Level Denver Center
10:17PM 39.3161 -103.7475 78° East 456 525 37,000  Level Denver Center
10:18PM 39.3400 -103.5850 79° East 462 532 37,000  Level Denver Center
10:19PM 39.3575 -103.4225 82° East 458 527 37,000  Level Denver Center
10:20PM 39.3572 -103.2561 90° East 465 535 37,000  Level Denver Center
10:21PM 39.3600 -103.0889 89° East 465 535 37,000  Level Denver Center
10:22PM 39.3606 -102.9208 90° East 469 540 37,000  Level Denver Center
10:23PM 39.3678 -102.7169 87° East 476 548 37,000  Level Denver Center
10:24PM 39.4125 -102.5517 71° East 490 564 37,000  Level Denver Center
10:25PM 39.4597 -102.3889 69° East 486 559 37,000  Level Denver Center
10:26PM 39.5111 -102.2136 69° East 487 560 37,000  Level Denver Center
10:27PM 39.5586 -102.0583 68° East 487 560 37,000  Level Denver Center
10:28PM 39.6200 -101.8814 66° East 485 558 37,000  Level Denver Center
10:29PM 39.6931 -101.7464 55° Northeast 482 555 37,000  Level Denver Center
10:30PM 39.7775 -101.5856 56° Northeast 483 556 37,000  Level Denver Center
10:31PM 39.8478 -101.4486 56° Northeast 478 550 37,000  Level Denver Center
10:32PM 39.9186 -101.3128 56° Northeast 475 547 37,000  Level Denver Center
10:33PM 40.0008 -101.1528 56° Northeast 478 550 37,000  Level Denver Center
10:34PM 40.0697 -101.0150 57° Northeast 474 545 37,000  Level Denver Center
10:36PM 40.1511 -100.8572 56° Northeast 472 543 37,000  Level Denver Center
10:37PM 40.2194 -100.7219 56° Northeast 470 541 37,000  Level Denver Center
10:38PM 40.2994 -100.5642 56° Northeast 468 539 37,000  Level Denver Center
10:39PM 40.3672 -100.4286 57° Northeast 468 539 37,000  Level Denver Center
10:40PM 40.4469 -100.2717 56° Northeast 466 536 37,000  Level Denver Center
10:41PM 40.5147 -100.1347 57° Northeast 469 540 37,000  Level Denver Center
10:42PM 40.5947 -99.9747 57° Northeast 471 542 37,000  Level Denver Center
10:43PM 40.6564 -99.8475 57° Northeast 472 543 37,000  Level Denver Center
10:44PM 40.7419 -99.6742 57° Northeast 471 542 37,000  Level Denver Center
10:45PM 40.8131 -99.5303 57° Northeast 469 540 37,000  Level Denver Center
10:46PM 40.8836 -99.3856 57° Northeast 468 539 37,000  Level Denver Center
10:47PM 40.9533 -99.2400 58° Northeast 469 540 37,000  Level Denver Center
10:48PM 41.0214 -99.0994 57° Northeast 466 536 37,000  Level Denver Center
10:49PM 41.0994 -98.9364 58° Northeast 469 540 37,000  Level Denver Center
10:50PM 41.1681 -98.7942 57° Northeast 474 545 37,000  Level Denver Center
10:51PM 41.2419 -98.6386 58° Northeast 475 547 37,000  Level Denver Center
10:52PM 41.3117 -98.4900 58° Northeast 473 544 37,000  Level Denver Center
10:53PM 41.3897 -98.2706 65° Northeast 467 537 37,000  Level Minneapolis Center
10:54PM 41.4178 -98.1083 77° East 471 542 37,000  Level Minneapolis Center
10:55PM 41.4467 -97.9378 77° East 472 543 37,000  Level Minneapolis Center
10:56PM 41.4742 -97.7672 78° East 471 542 37,000  Level Minneapolis Center
10:57PM 41.5028 -97.5975 77° East 469 540 37,000  Level Minneapolis Center
10:59PM 41.5297 -97.4283 78° East 467 537 37,000  Level Minneapolis Center
11:00PM 41.5628 -97.2253 78° East 467 537 37,000  Level Minneapolis Center
11:01PM 41.5894 -97.0553 78° East 467 537 37,000  Level Minneapolis Center
11:02PM 41.6208 -96.8519 78° East 465 535 37,000  Level Minneapolis Center
11:03PM 41.6478 -96.6803 78° East 468 539 37,000  Level Minneapolis Center
11:04PM 41.6744 -96.5083 78° East 469 540 37,000  Level Minneapolis Center
11:05PM 41.7011 -96.3347 78° East 473 544 37,000  Level Minneapolis Center
11:06PM 41.7267 -96.1578 79° East 477 549 37,000  Level Minneapolis Center
11:07PM 41.7519 -95.9825 79° East 476 548 37,000  Level Minneapolis Center
11:08PM 41.7786 -95.8064 78° East 478 550 37,000  Level Minneapolis Center
11:09PM 41.8039 -95.6297 79° East 479 551 37,000  Level Minneapolis Center
11:10PM 41.8344 -95.4200 79° East 478 550 37,000  Level Minneapolis Center
11:11PM 41.8583 -95.2464 79° East 474 545 37,000  Level Minneapolis Center
11:12PM 41.8814 -95.0733 80° East 472 543 37,000  Level Minneapolis Center
11:13PM 41.9058 -94.9003 79° East 471 542 37,000  Level Minneapolis Center
11:14PM 41.9289 -94.7264 80° East 473 544 37,000  Level Minneapolis Center
11:15PM 41.9492 -94.5872 79° East 475 547 37,000  Level Minneapolis Center
11:16PM 41.9761 -94.3764 80° East 477 549 37,000  Level Minneapolis Center
11:17PM 41.9994 -94.2014 80° East 476 548 37,000  Level Minneapolis Center
11:18PM 42.0264 -93.9894 80° East 479 551 37,000  Level Minneapolis Center
11:19PM 42.0489 -93.8142 80° East 481 554 37,000  Level Minneapolis Center
11:20PM 42.0728 -93.6367 80° East 486 559 37,000  Level Minneapolis Center
11:21PM 42.0953 -93.4589 80° East 486 559 37,000  Level Minneapolis Center
11:22PM 42.1172 -93.2828 80° East 483 556 37,000  Level Minneapolis Center
11:23PM 42.1372 -93.1061 81° East 482 555 37,000  Level Minneapolis Center
11:24PM 42.1586 -92.9294 81° East 482 555 37,000  Level Minneapolis Center
11:25PM 42.1794 -92.7533 81° East 481 554 37,000  Level Chicago Center
11:26PM 42.2000 -92.5772 81° East 480 552 37,000  Level Chicago Center
11:27PM 42.2322 -92.4047 76° East 485 558 37,000  Level Chicago Center
11:28PM 42.2725 -92.2322 72° East 489 563 37,000  Level Chicago Center
11:29PM 42.3122 -92.0631 72° East 481 554 37,000  Level Chicago Center
11:30PM 42.3517 -91.8928 73° East 482 555 37,000  Level Chicago Center
11:31PM 42.3981 -91.6919 73° East 477 549 37,000  Level Chicago Center
11:32PM 42.4358 -91.5239 73° East 477 549 37,000  Level Chicago Center
11:33PM 42.4733 -91.3581 73° East 472 543 37,000  Level Chicago Center
11:34PM 42.5106 -91.1911 73° East 472 543 37,000 300 Level Chicago Center
11:35PM 42.5467 -91.0214 74° East 476 548 37,700 780 Climbing Chicago Center
11:36PM 42.5858 -90.8519 73° East 479 551 38,600 600 Climbing Chicago Center
11:37PM 42.6300 -90.6456 74° East 481 554 39,000 180 Climbing Chicago Center
11:38PM 42.6667 -90.4736 74° East 480 552 39,000  Level Chicago Center
11:39PM 42.7044 -90.3025 73° East 479 551 39,000  Level Chicago Center
11:40PM 42.7411 -90.1314 74° East 478 550 39,000  Level Chicago Center
11:41PM 42.7775 -89.9606 74° East 477 549 39,000  Level Chicago Center
11:42PM 42.8175 -89.7667 74° East 473 544 39,000  Level Chicago Center
11:43PM 42.8544 -89.5931 74° East 476 548 39,000  Level Chicago Center
11:44PM 42.8900 -89.4222 74° East 470 541 39,000  Level Chicago Center
11:45PM 42.9233 -89.2514 75° East 466 536 39,000  Level Chicago Center
11:47PM 42.9583 -89.0817 74° East 465 535 39,000  Level Chicago Center
11:48PM 42.9922 -88.9128 75° East 460 529 39,000  Level Chicago Center
11:49PM 43.0261 -88.7411 75° East 467 537 39,000  Level Chicago Center
11:50PM 43.0592 -88.5708 75° East 467 537 39,000  Level Chicago Center
11:51PM 43.0928 -88.4011 75° East 467 537 39,000  Level Chicago Center
11:52PM 43.1200 -88.2011 79° East 463 533 39,000  Level Chicago Center
11:53PM 43.1289 -88.0267 86° East 463 533 39,000  Level Chicago Center
11:54PM 43.1364 -87.8522 87° East 462 532 39,000  Level Chicago Center
11:55PM 43.1442 -87.6767 86° East 463 533 39,000  Level Chicago Center
11:56PM 43.1525 -87.5000 86° East 466 536 39,000  Level Chicago Center
11:57PM 43.1603 -87.3153 87° East 465 535 39,000  Level Chicago Center
11:58PM 43.1683 -87.1400 86° East 463 533 39,000  Level Chicago Center
11:59PM 43.1742 -86.9653 87° East 461 531 39,000  Level Chicago Center
12:00AM 43.1808 -86.7925 87° East 457 526 39,000  Level Chicago Center
12:01AM 43.1869 -86.6183 87° East 457 526 39,000  Level Chicago Center
12:02AM 43.1931 -86.4431 87° East 459 528 39,000  Level Chicago Center
12:03AM 43.2000 -86.2672 87° East 460 529 39,000  Level Chicago Center
12:04AM 43.2056 -86.0881 88° East 463 533 39,000  Level Chicago Center
12:05AM 43.2108 -85.9072 88° East 465 535 39,000  Level Chicago Center
12:06AM 43.2150 -85.7306 88° East 459 528 39,000  Level Chicago Center
12:07AM 43.2192 -85.5578 88° East 454 522 39,000  Level Chicago Center
12:08AM 43.2211 -85.3847 89° East 452 520 39,000  Level Chicago Center
12:09AM 43.2228 -85.2103 89° East 457 526 39,000  Level Chicago Center
12:10AM 43.2242 -85.0364 89° East 457 526 39,000  Level Chicago Center
12:11AM 43.2250 -84.8664 90° East 450 518 39,000  Level Chicago Center
12:12AM 43.2261 -84.6986 89° East 443 510 39,000  Level Chicago Center
12:13AM 43.2267 -84.5300 90° East 442 509 39,000  Level Chicago Center
12:14AM 43.2242 -84.3500 91° East 446 513 39,000  Level Cleveland Center
12:15AM 43.2253 -84.1847 89° East 441 507 39,000  Level Cleveland Center
12:16AM 43.2261 -84.0194 90° East 441 507 39,000  Level Cleveland Center
12:17AM 43.2250 -83.8400 90° East 441 507 39,000  Level Cleveland Center
12:18AM 43.2233 -83.6689 91° East 441 507 39,000  Level Cleveland Center
12:19AM 43.2236 -83.5036 90° East 441 507 39,000  Level Cleveland Center
12:20AM 43.2214 -83.3353 91° East 441 507 39,000  Level Cleveland Center
12:21AM 43.2211 -83.1700 90° East 441 507 39,000  Level Cleveland Center
12:22AM 43.2183 -83.0047 91° East 441 507 39,000  Level Cleveland Center
12:23AM 43.2156 -82.8422 91° East 436 502 39,000  Level Cleveland Center
12:24AM 43.2144 -82.6769 90° East 436 502 39,000  Level Cleveland Center
12:25AM 43.2147 -82.5344 90° East 436 502 39,000  Level Cleveland Center
12:26AM 43.2092 -82.3692 93° East 431 496 39,000  Level Cleveland Center
12:27AM 43.1833 -82.1333 98° East 430 495 39,000  Level Toronto Center
12:28AM 43.1833 -81.9667 90° East 430 495 39,000  Level Toronto Center
12:29AM 43.2000 -81.7833 83° East 430 495 39,000  Level Toronto Center
12:30AM 43.1833 -81.6167 98° East 430 495 39,000  Level Toronto Center
12:31AM 43.1833 -81.4333 90° East 440 506 39,000  Level Toronto Center
12:32AM 43.1667 -81.3000 100° East 430 495 39,000  Level Toronto Center
12:33AM 43.1667 -81.1500 90° East 430 495 39,000  Level Toronto Center
12:34AM 43.1667 -80.9667 90° East 430 495 39,000  Level Toronto Center
12:35AM 43.1667 -80.8000 90° East 430 495 39,000  Level Toronto Center
12:36AM 43.1667 -80.6333 90° East 420 483 39,000  Level Toronto Center
12:37AM 43.1500 -80.4833 99° East 420 483 39,000  Level Toronto Center
12:38AM 43.1500 -80.3167 90° East 420 483 39,000  Level Toronto Center
12:39AM 43.1500 -80.1667 90° East 420 483 39,000  Level Toronto Center
12:40AM 43.1333 -80.0000 98° East 430 495 39,000  Level Toronto Center
12:41AM 43.1333 -79.8333 90° East 430 495 39,000  Level Toronto Center
12:42AM 43.1333 -79.6833 90° East 430 495 39,000  Level Toronto Center
12:43AM 43.1167 -79.5000 97° East 430 495 39,000  Level Toronto Center
12:44AM 43.1167 -79.3333 90° East 430 495 39,000  Level Toronto Center
12:45AM 43.1000 -79.1833 99° East 430 495 39,000  Level Toronto Center
12:46AM 43.1000 -79.0167 90° East 430 495 39,000  Level Toronto Center
12:47AM 43.1000 -78.8500 90° East 430 495 39,000  Level Toronto Center
12:48AM 43.0833 -78.7000 99° East 430 495 39,000  Level Toronto Center
12:49AM 43.0833 -78.5167 90° East 430 495 39,000  Level Toronto Center
12:50AM 43.0500 -78.3500 105° East 440 506 39,000  Level Toronto Center
12:51AM 43.0500 -78.2000 90° East 440 506 39,000  Level Toronto Center
12:52AM 43.0500 -78.0333 90° East 440 506 39,000  Level Toronto Center
12:53AM 43.0333 -77.8500 97° East 440 506 39,000  Level Toronto Center
12:54AM 43.0333 -77.7000 90° East 440 506 39,000  Level Toronto Center
12:55AM 43.0167 -77.5333 98° East 440 506 39,000  Level Toronto Center
12:56AM 43.0000 -77.3833 99° East 440 506 39,000  Level Toronto Center
12:57AM 43.0000 -77.2000 90° East 440 506 39,000  Level Toronto Center
12:58AM 43.0019 -77.0828 89° East 444 511 39,000  Level Boston Center
12:59AM 42.9919 -76.9144 95° East 444 511 39,000  Level Boston Center
01:00AM 42.9817 -76.7489 95° East 444 511 39,000  Level Boston Center
01:01AM 42.9689 -76.5892 96° East 444 511 39,000 -300 Level Boston Center
01:02AM 42.9581 -76.4208 95° East 444 511 38,400 -1,380 Descending Boston Center
01:03AM 42.9453 -76.2528 96° East 444 511 36,300 -2,160 Descending Boston Center
01:04AM 42.9339 -76.0875 95° East 444 511 34,100 -2,100 Descending Boston Center
01:05AM 42.9206 -75.9164 96° East 449 517 32,100 -2,040 Descending Boston Center
01:06AM 42.9086 -75.7514 96° East 449 517 30,100 -1,920 Descending Boston Center
01:07AM 42.8967 -75.5892 96° East 442 509 28,300 -1,800 Descending Boston Center
01:08AM 42.8861 -75.4356 95° East 424 488 26,500 -1,800 Descending Boston Center
01:09AM 42.8733 -75.2847 97° East 411 473 24,800 -1,740 Descending Boston Center
01:10AM 42.8603 -75.1394 97° East 400 460 23,100 -1,740 Descending Boston Center
01:11AM 42.8511 -74.9947 95° East 390 449 21,400 -1,860 Descending Boston Center
01:12AM 42.8431 -74.8811 95° East 379 436 20,000 -1,800 Descending Boston Center
01:13AM 42.8261 -74.6964 97° East 383 441 17,900 -1,620 Descending Boston Center
01:14AM 42.8161 -74.5742 96° East 371 427 16,400 -1,740 Descending Boston Center
01:15AM 42.8083 -74.4239 94° East 366 421 14,500 -2,580 Descending Boston Center
01:16AM 42.8122 -74.3053 87° East 360 414 11,300 -2,400 Descending Boston Center
01:17AM 42.8292 -74.1669 80° East 325 374 9,700 -1,860 Descending Boston Center
01:18AM 42.8622 -74.0519 69° East 298 343 7,500 -2,460 Descending Boston Center
01:19AM 42.8678 -73.9442 86° East 279 321 4,800 -2,580 Descending Boston Center
01:20AM 42.8733 -73.8397 86° East 273 314 2,300 -1,440 Descending Boston Center
01:21AM 42.8486 -73.7967 128° Southeast 163 188 1,900 -540 Descending Boston Center
01:22AM 42.8111 -73.8069 191° South 128 147 1,300 -660 Descending Boston Center
01:23AM 42.7714 -73.8092 182° South 134 154 600 -720 Descending Boston Center